Accueil
METAR-TAF:

METAR-TAF

Aéroports :

Bryce Canyon, Utah, États-Unis

latitude: 37-42-23N, longitude: 112-08-44W, altitude: 2312 m

Observation

Le bulletin a été fait il y a 38 minutes, à 22:53 UTC
Vent 10 kt de sud/sud-est
Température 22°C
Humidité 20%
Pression 1029 hPa
Visibilité: 16.1 km
Ciel clair

METAR: KBCE 262253Z AUTO 15010KT 10SM CLR 22/M02 A3039 RMK AO2 SLP197 T02221022

Heure: 17:31 (23:31 UTC)

Prévision

Le bulletin a été fait il y a 4 heures et 32 minutes, à 18:59 UTC
Prévision valable du 26 à 19 UTC au 27 à 18 UTC
Vent 11 kt de sud/sud-est
Visibilité: 10 km
Ciel clair
A partir de 27 à 0300 UTC
Vent 6 kt de ouest
Visibilité: 10 km
Quelques nuages à une hauteur de 10000 ft
Quelques nuages à une hauteur de 25000 ft

TAF: KBCE 261859Z 2619/2718 16011KT P6SM SKC FM270300 27006KT P6SM FEW100 FEW250

Observations et prévisions météorologiques de plus de 4000 aéroports (messages METAR et TAF).

Les stations disponibles sont représentées par des disques jaunes et rouges sur la carte.

Passer la souris dessus pour voir le nom de la station.

Cliquer dessus pour voir les observations et prévisions météorologiques.

Pour changer de carte: cliquez sur les boutons verts avec une croix noire pour zoomer, sur le bouton vert avec un tiret pour effectuer un zoom arrière, ou sur les flèches vertes pour les cartes adjacentes.


METAR-TAF: